createdAt,value
2019-06-27T00:01:15.762Z,6.20
2019-06-27T00:03:46.934Z,7.00
2019-06-27T00:06:18.206Z,9.13
2019-06-27T00:08:49.266Z,9.53
2019-06-27T00:11:20.463Z,8.77
2019-06-27T00:13:51.836Z,10.43
2019-06-27T00:16:22.733Z,7.60
2019-06-27T00:18:54.015Z,10.13
2019-06-27T00:21:25.255Z,8.97
2019-06-27T00:23:56.603Z,8.00
2019-06-27T00:26:28.512Z,9.87
2019-06-27T00:28:59.551Z,9.03
2019-06-27T00:31:30.854Z,7.63
2019-06-27T00:34:05.272Z,8.80
2019-06-27T00:36:36.254Z,10.23
2019-06-27T00:39:07.295Z,11.55
2019-06-27T00:41:38.201Z,9.90
2019-06-27T00:44:09.441Z,6.50
2019-06-27T00:46:40.435Z,8.40
2019-06-27T00:49:11.901Z,7.90
2019-06-27T00:51:45.353Z,8.70
2019-06-27T00:54:16.867Z,6.50
2019-06-27T00:56:47.795Z,10.27
2019-06-27T00:59:19.059Z,9.53
2019-06-27T01:01:49.975Z,7.07
2019-06-27T01:04:20.921Z,6.23
2019-06-27T01:06:51.899Z,9.67
2019-06-27T01:09:22.803Z,10.63
2019-06-27T01:11:53.713Z,9.30
2019-06-27T01:14:25.037Z,10.47
2019-06-27T01:16:56.097Z,8.50
2019-06-27T01:19:28.373Z,10.43
2019-06-27T01:21:59.278Z,10.77
2019-06-27T01:24:30.195Z,10.40
2019-06-27T01:27:02.165Z,9.83
2019-06-27T01:29:33.577Z,6.63
2019-06-27T01:32:04.481Z,11.65
2019-06-27T01:34:35.390Z,5.77
2019-06-27T01:37:06.700Z,13.00
2019-06-27T01:39:37.704Z,6.03
2019-06-27T01:42:08.787Z,11.50
2019-06-27T01:44:59.197Z,9.13
2019-06-27T01:47:30.106Z,7.63
2019-06-27T01:50:01.178Z,13.87
2019-06-27T01:52:32.437Z,9.17
2019-06-27T01:55:03.344Z,10.33
2019-06-27T01:57:46.074Z,9.23
2019-06-27T02:00:08.970Z,8.00
2019-06-27T02:02:39.866Z,8.07
2019-06-27T02:05:12.214Z,16.00
2019-06-27T02:07:43.445Z,9.83
2019-06-27T02:10:14.731Z,9.73
2019-06-27T02:12:45.643Z,9.33
2019-06-27T02:15:17.386Z,9.13
2019-06-27T02:17:48.299Z,9.87
2019-06-27T02:20:20.998Z,10.40
2019-06-27T02:22:51.967Z,10.80
2019-06-27T02:25:22.980Z,9.50
2019-06-27T02:28:03.685Z,12.77
2019-06-27T02:30:39.938Z,8.67
2019-06-27T02:33:11.354Z,8.73
2019-06-27T02:35:42.491Z,10.17
2019-06-27T02:38:13.852Z,9.80
2019-06-27T02:40:44.776Z,11.63
2019-06-27T02:43:15.710Z,10.67
2019-06-27T02:45:47.158Z,9.50
2019-06-27T02:48:18.135Z,11.70
2019-06-27T02:50:49.078Z,8.97
2019-06-27T02:53:20.729Z,13.03
2019-06-27T02:55:51.758Z,12.67
2019-06-27T02:58:31.007Z,11.03
2019-06-27T03:00:55.449Z,8.50
2019-06-27T03:03:26.387Z,11.10
2019-06-27T03:05:58.270Z,7.33
2019-06-27T03:08:29.311Z,11.40
2019-06-27T03:11:00.355Z,11.40
2019-06-27T03:13:31.257Z,12.30
2019-06-27T03:16:02.537Z,13.70
2019-06-27T03:18:33.461Z,11.10
2019-06-27T03:21:04.457Z,11.53
2019-06-27T03:23:35.757Z,11.97
2019-06-27T03:26:07.696Z,12.00
2019-06-27T03:28:51.869Z,11.23
2019-06-27T03:31:11.586Z,13.83
2019-06-27T03:33:42.554Z,9.73
2019-06-27T03:36:14.565Z,13.70
2019-06-27T03:38:45.891Z,10.03
2019-06-27T03:41:16.814Z,15.87
2019-06-27T03:43:48.165Z,14.53
2019-06-27T03:46:19.518Z,13.03
2019-06-27T03:48:50.572Z,9.60
2019-06-27T03:51:21.591Z,16.10
2019-06-27T03:53:52.573Z,12.37
2019-06-27T03:56:23.506Z,12.90
2019-06-27T03:59:11.555Z,12.23
2019-06-27T04:01:27.491Z,11.40
2019-06-27T04:03:58.426Z,12.77
2019-06-27T04:06:29.326Z,13.93
2019-06-27T04:09:00.315Z,17.00
2019-06-27T04:11:31.221Z,15.40
2019-06-27T04:14:02.676Z,17.57
2019-06-27T04:16:33.697Z,18.47
2019-06-27T04:19:04.697Z,16.40
2019-06-27T04:21:36.013Z,19.57
2019-06-27T04:24:07.393Z,15.63
2019-06-27T04:26:38.465Z,14.23
2019-06-27T04:29:09.748Z,17.27
2019-06-27T04:31:40.684Z,17.17
2019-06-27T04:34:12.674Z,22.93
2019-06-27T04:36:43.611Z,19.87
2019-06-27T04:39:14.828Z,20.03
2019-06-27T04:41:45.941Z,18.10
2019-06-27T04:44:16.891Z,19.77
2019-06-27T04:46:48.766Z,21.13
2019-06-27T04:49:20.083Z,17.57
2019-06-27T04:51:51.091Z,20.40
2019-06-27T04:54:22.096Z,22.20
2019-06-27T04:56:53.089Z,19.87
2019-06-27T04:59:24.106Z,20.50
2019-06-27T05:01:55.089Z,17.80
2019-06-27T05:04:26.039Z,17.43
2019-06-27T05:06:56.991Z,19.63
2019-06-27T05:09:29.370Z,18.47
2019-06-27T05:12:00.363Z,15.30
2019-06-27T05:14:32.636Z,18.33
2019-06-27T05:17:03.778Z,22.13
2019-06-27T05:19:34.690Z,17.53
2019-06-27T05:22:05.681Z,18.80
2019-06-27T05:24:36.622Z,19.80
2019-06-27T05:27:07.671Z,19.23
2019-06-27T05:29:38.735Z,17.67
2019-06-27T05:32:09.759Z,17.93
2019-06-27T05:34:40.999Z,16.17
2019-06-27T05:37:11.925Z,16.27
2019-06-27T05:39:42.869Z,17.70
2019-06-27T05:42:13.859Z,17.07
2019-06-27T05:44:44.792Z,19.67
2019-06-27T05:47:15.876Z,19.93
2019-06-27T05:49:46.880Z,18.43
2019-06-27T05:52:17.843Z,21.07
2019-06-27T05:54:48.772Z,20.33
2019-06-27T05:57:22.492Z,18.23
2019-06-27T05:59:53.751Z,22.70
2019-06-27T06:02:24.685Z,21.10
2019-06-27T06:04:55.674Z,19.63
2019-06-27T06:07:26.696Z,23.27
2019-06-27T06:09:57.704Z,20.87
2019-06-27T06:12:29.795Z,19.43
2019-06-27T06:15:00.817Z,19.30
2019-06-27T06:17:32.258Z,22.80
2019-06-27T06:20:03.839Z,21.47
2019-06-27T06:22:35.144Z,20.52
2019-06-27T06:25:06.375Z,21.87
2019-06-27T06:27:37.734Z,19.40
2019-06-27T06:30:09.580Z,22.30
2019-06-27T06:32:41.327Z,19.57
2019-06-27T06:35:12.788Z,18.32
2019-06-27T06:37:44.961Z,18.17
2019-06-27T06:40:16.315Z,18.50
2019-06-27T06:42:47.356Z,19.65
2019-06-27T06:45:18.293Z,17.90
2019-06-27T06:47:49.278Z,15.65
2019-06-27T06:50:23.375Z,21.68
2019-06-27T06:52:53.313Z,17.50
2019-06-27T06:55:24.263Z,20.00
2019-06-27T06:57:55.363Z,17.75
2019-06-27T07:00:26.650Z,19.93
2019-06-27T07:02:57.628Z,19.97
2019-06-27T07:05:28.627Z,21.35
2019-06-27T07:08:00.659Z,18.65
2019-06-27T07:10:31.579Z,19.10
2019-06-27T07:13:02.594Z,18.33
2019-06-27T07:15:33.558Z,18.65
2019-06-27T07:18:04.506Z,17.02
2019-06-27T07:20:36.227Z,16.60
2019-06-27T07:23:07.573Z,20.82
2019-06-27T07:25:38.936Z,21.48
2019-06-27T07:28:10.278Z,18.93
2019-06-27T07:30:41.530Z,16.70
2019-06-27T07:33:12.528Z,15.18
2019-06-27T07:35:43.542Z,16.23
2019-06-27T07:38:14.664Z,16.25
2019-06-27T07:40:46.386Z,14.23
2019-06-27T07:43:18.351Z,13.22
2019-06-27T07:45:49.441Z,15.93
2019-06-27T07:48:20.782Z,14.70
2019-06-27T07:50:52.718Z,17.25
2019-06-27T07:53:23.752Z,16.07
2019-06-27T07:55:55.508Z,14.78
2019-06-27T07:58:26.504Z,14.95
2019-06-27T08:00:57.875Z,18.35
2019-06-27T08:03:29.621Z,19.48
2019-06-27T08:06:00.910Z,13.10
2019-06-27T08:08:32.563Z,15.40
2019-06-27T08:11:03.564Z,14.70
2019-06-27T08:13:34.647Z,16.10
2019-06-27T08:16:05.627Z,19.23
2019-06-27T08:18:36.616Z,14.00
2019-06-27T08:21:07.543Z,16.65
2019-06-27T08:23:41.848Z,16.65
2019-06-27T08:26:12.776Z,14.55
2019-06-27T08:28:44.159Z,18.25
2019-06-27T08:31:15.490Z,14.30
2019-06-27T08:33:47.042Z,15.93
2019-06-27T08:36:17.971Z,14.98
2019-06-27T08:38:49.298Z,13.90
2019-06-27T08:41:20.243Z,14.07
2019-06-27T08:43:51.544Z,13.98
2019-06-27T08:46:23.270Z,16.00
2019-06-27T08:48:54.281Z,13.55
2019-06-27T08:51:25.191Z,11.43
2019-06-27T08:53:56.128Z,10.82
2019-06-27T08:56:27.168Z,16.07
2019-06-27T08:58:58.173Z,9.55
2019-06-27T09:01:29.515Z,8.95
2019-06-27T09:04:00.559Z,9.30
2019-06-27T09:06:31.488Z,10.90
2019-06-27T09:09:02.833Z,8.10
2019-06-27T09:11:38.013Z,9.73
2019-06-27T09:14:07.330Z,7.50
2019-06-27T09:16:38.645Z,9.63
2019-06-27T09:19:09.633Z,5.90
2019-06-27T09:21:40.624Z,8.10
2019-06-27T09:24:11.544Z,6.65
2019-06-27T09:26:42.936Z,6.85
2019-06-27T09:29:14.220Z,9.08
2019-06-27T09:31:45.479Z,9.50
2019-06-27T09:34:16.392Z,6.75
2019-06-27T09:36:47.354Z,8.50
2019-06-27T09:39:18.278Z,9.20
2019-06-27T09:41:49.574Z,8.55
2019-06-27T09:44:20.536Z,7.72
2019-06-27T09:46:51.539Z,8.25
2019-06-27T09:49:22.449Z,7.85
2019-06-27T09:51:53.783Z,7.83
2019-06-27T09:54:25.263Z,7.50
2019-06-27T09:56:56.514Z,9.28
2019-06-27T09:59:27.446Z,4.72
2019-06-27T10:01:58.449Z,4.85
2019-06-27T10:04:30.126Z,10.25
2019-06-27T10:07:01.115Z,8.03
2019-06-27T10:09:32.713Z,13.30
2019-06-27T10:12:03.719Z,7.65
2019-06-27T10:14:34.645Z,9.63
2019-06-27T10:17:05.745Z,9.68
2019-06-27T10:19:36.809Z,12.15
2019-06-27T10:22:07.745Z,7.90
2019-06-27T10:24:38.748Z,6.10
2019-06-27T10:27:09.999Z,10.50
2019-06-27T10:29:41.330Z,6.85
2019-06-27T10:32:12.339Z,4.45
2019-06-27T10:34:43.327Z,7.10
2019-06-27T10:37:14.684Z,6.60
2019-06-27T10:39:45.989Z,6.72
2019-06-27T10:42:16.980Z,9.58
2019-06-27T10:44:48.334Z,6.08
2019-06-27T10:47:20.769Z,7.50
2019-06-27T10:49:52.039Z,5.70
2019-06-27T10:52:23.085Z,10.05
2019-06-27T10:54:54.387Z,5.30
2019-06-27T10:57:25.438Z,6.87
2019-06-27T10:59:56.503Z,6.15
2019-06-27T11:02:27.570Z,6.90
2019-06-27T11:04:58.899Z,7.12
2019-06-27T11:07:29.883Z,6.62
2019-06-27T11:10:01.146Z,6.35
2019-06-27T11:12:32.444Z,5.65
2019-06-27T11:15:03.633Z,4.83
2019-06-27T11:17:34.662Z,3.87
2019-06-27T11:20:06.318Z,5.55
2019-06-27T11:22:37.998Z,5.20
2019-06-27T11:25:09.733Z,6.55
2019-06-27T11:27:40.729Z,8.15
2019-06-27T11:30:13.095Z,6.85
2019-06-27T11:32:44.018Z,5.30
2019-06-27T11:35:14.951Z,7.75
2019-06-27T11:37:46.685Z,6.78
2019-06-27T11:40:18.166Z,4.17
2019-06-27T11:42:49.952Z,5.37
2019-06-27T11:45:21.829Z,6.42
2019-06-27T11:47:53.288Z,7.22
2019-06-27T11:50:24.232Z,5.30
2019-06-27T11:52:55.295Z,5.47
2019-06-27T11:55:26.269Z,3.67
2019-06-27T11:57:57.566Z,4.08
2019-06-27T12:00:28.571Z,7.20
2019-06-27T12:02:59.618Z,6.70
2019-06-27T12:05:30.886Z,8.95
2019-06-27T12:08:01.817Z,3.58
2019-06-27T12:10:33.097Z,4.90
2019-06-27T12:13:04.934Z,9.48
2019-06-27T12:15:35.927Z,9.48
2019-06-27T12:18:07.243Z,4.25
2019-06-27T12:20:38.319Z,5.83
2019-06-27T12:23:09.297Z,5.12
2019-06-27T12:25:40.411Z,4.53
2019-06-27T12:28:11.456Z,5.55
2019-06-27T12:30:42.495Z,6.40
2019-06-27T12:33:13.883Z,5.33
2019-06-27T12:35:45.182Z,5.95
2019-06-27T12:38:16.195Z,7.95
2019-06-27T12:40:48.734Z,6.58
2019-06-27T12:43:19.861Z,6.72
2019-06-27T12:45:50.967Z,7.58
2019-06-27T12:48:22.361Z,10.88
2019-06-27T12:50:53.781Z,7.67
2019-06-27T12:53:25.116Z,7.67
2019-06-27T12:55:56.516Z,8.60
2019-06-27T12:58:28.270Z,6.00
2019-06-27T13:00:59.614Z,6.33
2019-06-27T13:03:30.696Z,5.90
2019-06-27T13:06:01.756Z,10.08
2019-06-27T13:08:32.731Z,4.58
2019-06-27T13:11:03.800Z,16.30
2019-06-27T13:13:34.816Z,6.17
2019-06-27T13:16:05.876Z,5.17
2019-06-27T13:18:36.977Z,6.58
2019-06-27T13:21:08.015Z,7.97
2019-06-27T13:23:39.098Z,9.95
2019-06-27T13:26:10.534Z,5.85
2019-06-27T13:28:42.300Z,8.38
2019-06-27T13:31:13.744Z,6.20
2019-06-27T13:33:45.176Z,6.15
2019-06-27T13:36:16.318Z,7.10
2019-06-27T13:38:47.348Z,10.93
2019-06-27T13:41:18.474Z,5.65
2019-06-27T13:43:49.950Z,4.95
2019-06-27T13:46:21.004Z,5.22
2019-06-27T13:48:52.128Z,5.10
2019-06-27T13:51:23.189Z,9.65
2019-06-27T13:53:54.576Z,8.45
2019-06-27T13:56:27.207Z,7.42
2019-06-27T13:58:58.657Z,7.83
2019-06-27T14:01:30.127Z,6.22
2019-06-27T14:04:02.996Z,6.20
2019-06-27T14:06:45.963Z,9.88
2019-06-27T14:09:23.544Z,10.93
2019-06-27T14:11:49.682Z,7.62
2019-06-27T14:14:20.747Z,8.60
2019-06-27T14:16:52.134Z,10.55
2019-06-27T14:19:23.123Z,11.38
2019-06-27T14:21:54.067Z,6.85
2019-06-27T14:24:25.082Z,6.08
2019-06-27T14:26:56.170Z,8.65
2019-06-27T14:29:27.488Z,7.70
2019-06-27T14:31:58.764Z,4.30
2019-06-27T14:34:29.759Z,7.03
2019-06-27T14:37:00.849Z,8.98
2019-06-27T14:39:32.214Z,6.47
2019-06-27T14:42:03.561Z,9.38
2019-06-27T14:44:34.561Z,5.78
2019-06-27T14:47:05.664Z,8.05
2019-06-27T14:49:36.599Z,6.70
2019-06-27T14:52:07.550Z,6.05
2019-06-27T14:54:39.295Z,8.85
2019-06-27T14:57:10.865Z,6.20
2019-06-27T14:59:42.196Z,8.25
2019-06-27T15:02:13.525Z,6.60
2019-06-27T15:04:44.446Z,7.15
2019-06-27T15:07:15.525Z,10.15
2019-06-27T15:09:46.560Z,5.17
2019-06-27T15:12:17.928Z,6.20
2019-06-27T15:14:50.646Z,5.83
2019-06-27T15:17:21.647Z,4.35
2019-06-27T15:19:52.560Z,3.35
2019-06-27T15:22:23.625Z,5.67
2019-06-27T15:24:54.766Z,6.08
2019-06-27T15:27:25.766Z,7.28
2019-06-27T15:29:56.730Z,5.45
2019-06-27T15:32:27.795Z,4.95
2019-06-27T15:34:59.889Z,8.45
2019-06-27T15:37:31.466Z,5.58
2019-06-27T15:40:03.554Z,6.90
2019-06-27T15:42:35.107Z,4.83
2019-06-27T15:45:08.107Z,3.58
2019-06-27T15:47:39.136Z,4.45
2019-06-27T15:50:10.469Z,5.83
2019-06-27T15:52:53.703Z,8.28
2019-06-27T15:55:24.703Z,5.20
2019-06-27T15:57:55.614Z,5.70
2019-06-27T16:00:26.625Z,8.38
2019-06-27T16:02:57.746Z,5.37
2019-06-27T16:05:28.772Z,6.08
2019-06-27T16:07:59.959Z,4.78
2019-06-27T16:10:31.292Z,5.20
2019-06-27T16:13:02.986Z,6.33
2019-06-27T16:15:34.199Z,5.72
2019-06-27T16:18:05.119Z,10.93
2019-06-27T16:20:36.061Z,5.22
2019-06-27T16:23:07.071Z,27.00
2019-06-27T16:25:38.100Z,6.55
2019-06-27T16:28:09.130Z,6.92
2019-06-27T16:30:40.138Z,8.80
2019-06-27T16:33:11.430Z,3.08
2019-06-27T16:35:42.419Z,5.53
2019-06-27T16:38:13.904Z,6.45
2019-06-27T16:40:44.887Z,4.55
2019-06-27T16:43:15.906Z,8.25
2019-06-27T16:45:46.855Z,9.68
2019-06-27T16:48:18.138Z,10.25
2019-06-27T16:50:49.476Z,4.83
2019-06-27T16:53:20.474Z,22.30
2019-06-27T16:55:51.430Z,7.85
2019-06-27T16:58:22.568Z,7.30
2019-06-27T17:00:53.971Z,6.58
2019-06-27T17:03:26.640Z,6.97
2019-06-27T17:05:58.059Z,6.33
2019-06-27T17:08:29.119Z,7.97
2019-06-27T17:11:00.239Z,4.67
2019-06-27T17:13:31.623Z,5.53
2019-06-27T17:16:02.638Z,3.58
2019-06-27T17:18:34.537Z,7.78
2019-06-27T17:21:05.490Z,4.40
2019-06-27T17:23:36.419Z,8.08
2019-06-27T17:26:11.571Z,6.42
2019-06-27T17:28:40.376Z,5.47
2019-06-27T17:31:11.441Z,5.65
2019-06-27T17:33:42.711Z,5.72
2019-06-27T17:36:14.138Z,5.47
2019-06-27T17:38:45.064Z,7.70
2019-06-27T17:41:15.979Z,6.90
2019-06-27T17:43:47.007Z,3.83
2019-06-27T17:46:18.021Z,6.08
2019-06-27T17:48:48.935Z,4.83
2019-06-27T17:51:19.948Z,5.30
2019-06-27T17:53:51.016Z,11.63
2019-06-27T17:56:21.938Z,5.60
2019-06-27T17:58:53.316Z,5.12
2019-06-27T18:01:24.683Z,9.63
2019-06-27T18:03:55.606Z,5.42
2019-06-27T18:06:26.600Z,4.37
2019-06-27T18:08:57.542Z,8.03
2019-06-27T18:11:28.565Z,9.73
2019-06-27T18:13:59.535Z,6.92
2019-06-27T18:16:31.247Z,5.65
2019-06-27T18:19:02.696Z,5.62
2019-06-27T18:21:33.783Z,5.30
2019-06-27T18:24:04.694Z,7.12
2019-06-27T18:26:35.634Z,6.72
2019-06-27T18:29:06.642Z,4.67
2019-06-27T18:31:37.992Z,8.10
2019-06-27T18:34:09.871Z,5.55
2019-06-27T18:36:41.236Z,8.58
2019-06-27T18:39:12.554Z,5.12
2019-06-27T18:41:55.985Z,6.65
2019-06-27T18:44:26.997Z,8.10
2019-06-27T18:46:58.340Z,6.25
2019-06-27T18:49:29.389Z,9.65
2019-06-27T18:52:00.711Z,5.72
2019-06-27T18:54:31.791Z,6.75
2019-06-27T18:57:03.770Z,5.42
2019-06-27T18:59:34.751Z,7.75
2019-06-27T19:02:05.882Z,7.78
2019-06-27T19:04:36.997Z,5.78
2019-06-27T19:07:08.045Z,8.70
2019-06-27T19:09:39.093Z,6.03
2019-06-27T19:12:10.115Z,5.75
2019-06-27T19:14:41.391Z,6.92
2019-06-27T19:17:12.430Z,5.85
2019-06-27T19:19:46.615Z,6.35
2019-06-27T19:22:35.572Z,6.90
2019-06-27T19:25:19.434Z,11.12
2019-06-27T19:28:02.202Z,5.12
2019-06-27T19:30:33.713Z,6.17
2019-06-27T19:33:05.952Z,5.62
2019-06-27T19:35:37.260Z,7.72
2019-06-27T19:38:08.611Z,8.20
2019-06-27T19:40:39.747Z,7.03
2019-06-27T19:43:23.369Z,10.28
2019-06-27T19:45:43.400Z,6.67
2019-06-27T19:48:14.531Z,6.78
2019-06-27T19:50:45.950Z,6.22
2019-06-27T19:53:16.863Z,9.93
2019-06-27T19:55:48.029Z,6.35
2019-06-27T19:58:19.793Z,6.17
2019-06-27T20:00:51.336Z,7.05
2019-06-27T20:03:22.375Z,4.70
2019-06-27T20:05:53.482Z,8.15
2019-06-27T20:08:24.467Z,5.83
2019-06-27T20:10:55.473Z,6.95
2019-06-27T20:13:26.599Z,5.72
2019-06-27T20:15:57.559Z,5.90
2019-06-27T20:18:29.006Z,6.35
2019-06-27T20:21:00.164Z,10.23
2019-06-27T20:23:31.936Z,5.40
2019-06-27T20:26:04.021Z,6.45
2019-06-27T20:28:35.094Z,7.85
2019-06-27T20:31:06.220Z,7.72
2019-06-27T20:33:37.352Z,6.25
2019-06-27T20:36:08.364Z,5.53
2019-06-27T20:38:39.485Z,5.35
2019-06-27T20:41:10.584Z,6.75
2019-06-27T20:43:41.926Z,9.53
2019-06-27T20:46:13.372Z,6.12
2019-06-27T20:48:44.774Z,4.53
2019-06-27T20:51:16.152Z,6.35
2019-06-27T20:53:47.287Z,6.00
2019-06-27T20:56:18.316Z,5.72
2019-06-27T20:58:49.395Z,7.17
2019-06-27T21:01:20.522Z,8.30
2019-06-27T21:03:51.645Z,6.65
2019-06-27T21:06:25.576Z,7.17
2019-06-27T21:08:56.646Z,6.47
2019-06-27T21:11:28.078Z,6.58
2019-06-27T21:13:59.053Z,8.45
2019-06-27T21:16:30.193Z,6.28
2019-06-27T21:19:01.249Z,10.38
2019-06-27T21:21:32.324Z,6.95
2019-06-27T21:24:03.875Z,10.28
2019-06-27T21:26:35.278Z,6.78
2019-06-27T21:29:06.677Z,8.90
2019-06-27T21:31:37.578Z,6.62
2019-06-27T21:34:08.635Z,7.62
2019-06-27T21:36:39.630Z,8.75
2019-06-27T21:39:10.727Z,6.15
2019-06-27T21:41:41.792Z,8.85
2019-06-27T21:44:12.844Z,8.43
2019-06-27T21:46:44.246Z,10.13
2019-06-27T21:49:15.587Z,9.40
2019-06-27T21:51:46.966Z,9.65
2019-06-27T21:54:18.059Z,6.15
2019-06-27T21:56:49.550Z,9.83
2019-06-27T21:59:20.539Z,10.03
2019-06-27T22:01:51.623Z,9.10
2019-06-27T22:04:23.079Z,6.22
2019-06-27T22:06:54.696Z,8.97
2019-06-27T22:09:26.226Z,12.23
2019-06-27T22:11:57.221Z,7.67
2019-06-27T22:14:28.319Z,7.03
2019-06-27T22:17:00.132Z,10.25
2019-06-27T22:19:31.221Z,8.00
2019-06-27T22:22:02.565Z,8.13
2019-06-27T22:24:33.636Z,9.50
2019-06-27T22:27:04.683Z,7.00
2019-06-27T22:29:35.819Z,10.00
2019-06-27T22:32:06.962Z,14.43
2019-06-27T22:34:38.107Z,10.80
2019-06-27T22:37:09.511Z,11.03
2019-06-27T22:39:58.493Z,8.80
2019-06-27T22:42:48.051Z,11.03
2019-06-27T22:45:37.009Z,12.88
2019-06-27T22:48:13.195Z,10.50
2019-06-27T22:51:11.463Z,12.47
2019-06-27T22:53:59.324Z,8.80
2019-06-27T22:56:30.473Z,11.50
2019-06-27T22:59:01.571Z,11.63
2019-06-27T23:01:32.507Z,10.73
2019-06-27T23:04:03.584Z,6.67
2019-06-27T23:06:34.920Z,7.63
2019-06-27T23:09:06.648Z,11.87
2019-06-27T23:11:37.791Z,15.83
2019-06-27T23:14:08.834Z,11.97
2019-06-27T23:16:39.960Z,10.23
2019-06-27T23:19:11.764Z,8.40
2019-06-27T23:21:42.902Z,8.90
2019-06-27T23:24:13.959Z,14.50
2019-06-27T23:26:45.709Z,12.20
2019-06-27T23:29:16.746Z,8.57
2019-06-27T23:31:47.867Z,11.27
2019-06-27T23:34:18.996Z,13.70
2019-06-27T23:36:50.057Z,9.67
2019-06-27T23:39:21.479Z,10.37
2019-06-27T23:41:53.620Z,10.20
2019-06-27T23:44:24.740Z,13.40
2019-06-27T23:46:55.794Z,15.30
2019-06-27T23:49:26.756Z,10.30
2019-06-27T23:51:57.783Z,11.17
2019-06-27T23:54:29.379Z,9.17
2019-06-27T23:57:01.146Z,11.83
2019-06-27T23:59:32.296Z,10.27
